createdAt,value
2019-02-21T00:01:40.547Z,43.07
2019-02-21T00:04:06.589Z,47.23
2019-02-21T00:06:32.623Z,40.70
2019-02-21T00:08:58.654Z,35.17
2019-02-21T00:11:24.675Z,34.10
2019-02-21T00:13:50.818Z,34.70
2019-02-21T00:16:17.334Z,37.43
2019-02-21T00:18:43.367Z,39.73
2019-02-21T00:21:09.381Z,39.07
2019-02-21T00:23:35.419Z,35.50
2019-02-21T00:26:01.424Z,35.23
2019-02-21T00:28:27.458Z,40.17
2019-02-21T00:30:53.474Z,40.70
2019-02-21T00:33:19.504Z,41.80
2019-02-21T00:35:45.519Z,37.60
2019-02-21T00:38:11.532Z,34.90
2019-02-21T00:40:37.585Z,35.43
2019-02-21T00:43:03.625Z,40.67
2019-02-21T00:45:29.659Z,52.00
2019-02-21T00:47:55.667Z,44.63
2019-02-21T00:50:21.695Z,44.13
2019-02-21T00:52:47.721Z,38.17
2019-02-21T00:55:13.769Z,45.07
2019-02-21T00:57:39.794Z,45.40
2019-02-21T01:00:10.384Z,45.13
2019-02-21T01:02:36.392Z,42.03
2019-02-21T01:05:02.927Z,40.27
2019-02-21T01:07:29.031Z,46.90
2019-02-21T01:09:55.063Z,43.70
2019-02-21T01:12:21.075Z,46.27
2019-02-21T01:14:47.112Z,40.53
2019-02-21T01:17:13.350Z,47.77
2019-02-21T01:19:39.412Z,41.60
2019-02-21T01:22:05.595Z,41.30
2019-02-21T01:24:31.640Z,43.10
2019-02-21T01:26:57.655Z,44.80
2019-02-21T01:29:23.683Z,41.33
2019-02-21T01:31:49.699Z,37.63
2019-02-21T01:34:15.795Z,40.13
2019-02-21T01:36:41.807Z,39.67
2019-02-21T01:39:07.940Z,42.13
2019-02-21T01:41:33.951Z,39.23
2019-02-21T01:43:59.999Z,42.60
2019-02-21T01:46:26.012Z,41.73
2019-02-21T01:48:52.053Z,42.23
2019-02-21T01:51:18.066Z,41.53
2019-02-21T01:53:44.071Z,43.80
2019-02-21T01:56:10.208Z,43.30
2019-02-21T01:58:36.211Z,41.57
2019-02-21T02:01:08.560Z,41.87
2019-02-21T02:03:30.455Z,46.07
2019-02-21T02:05:56.484Z,43.93
2019-02-21T02:08:22.497Z,46.13
2019-02-21T02:10:48.525Z,45.63
2019-02-21T02:13:24.163Z,52.10
2019-02-21T02:15:42.499Z,48.00
2019-02-21T02:18:08.512Z,44.13
2019-02-21T02:20:34.552Z,48.58
2019-02-21T02:23:00.579Z,36.83
2019-02-21T02:25:26.623Z,38.50
2019-02-21T02:27:52.641Z,41.23
2019-02-21T02:30:18.677Z,42.23
2019-02-21T02:32:44.793Z,39.47
2019-02-21T02:35:13.760Z,37.87
2019-02-21T02:37:39.767Z,47.43
2019-02-21T02:40:06.103Z,42.37
2019-02-21T02:42:32.113Z,41.87
2019-02-21T02:44:58.152Z,44.77
2019-02-21T02:47:24.184Z,41.07
2019-02-21T02:49:50.206Z,40.77
2019-02-21T02:52:16.225Z,44.67
2019-02-21T02:54:42.286Z,39.57
2019-02-21T02:57:08.320Z,40.33
2019-02-21T02:59:41.032Z,43.23
2019-02-21T03:02:02.273Z,52.87
2019-02-21T03:04:28.465Z,43.63
2019-02-21T03:06:54.577Z,42.20
2019-02-21T03:09:20.589Z,40.60
2019-02-21T03:11:46.625Z,50.13
2019-02-21T03:14:12.639Z,44.03
2019-02-21T03:16:38.747Z,47.73
2019-02-21T03:19:04.808Z,40.13
2019-02-21T03:21:30.836Z,38.73
2019-02-21T03:23:56.856Z,53.37
2019-02-21T03:26:22.883Z,42.33
2019-02-21T03:28:48.895Z,51.30
2019-02-21T03:31:14.933Z,48.17
2019-02-21T03:33:40.950Z,53.30
2019-02-21T03:36:07.003Z,55.13
2019-02-21T03:38:35.153Z,44.43
2019-02-21T03:41:01.835Z,51.87
2019-02-21T03:43:27.843Z,49.73
2019-02-21T03:45:53.891Z,49.60
2019-02-21T03:48:19.892Z,49.30
2019-02-21T03:50:45.911Z,55.60
2019-02-21T03:53:11.928Z,53.40
2019-02-21T03:55:37.955Z,55.45
2019-02-21T03:58:03.986Z,52.30
2019-02-21T04:00:29.994Z,63.03
2019-02-21T04:02:56.027Z,52.80
2019-02-21T04:05:22.044Z,50.37
2019-02-21T04:07:48.075Z,46.90
2019-02-21T04:10:14.087Z,52.20
2019-02-21T04:12:40.112Z,45.10
2019-02-21T04:15:08.538Z,52.27
2019-02-21T04:17:34.559Z,45.73
2019-02-21T04:20:00.575Z,45.20
2019-02-21T04:22:26.750Z,54.37
2019-02-21T04:24:52.838Z,48.00
2019-02-21T04:27:18.868Z,45.90
2019-02-21T04:29:44.886Z,57.30
2019-02-21T04:32:16.952Z,53.43
2019-02-21T04:34:38.960Z,52.33
2019-02-21T04:37:04.988Z,57.37
2019-02-21T04:39:31.009Z,54.03
2019-02-21T04:41:57.050Z,51.20
2019-02-21T04:44:23.064Z,54.37
2019-02-21T04:46:49.096Z,52.57
2019-02-21T04:49:15.137Z,48.33
2019-02-21T04:51:41.156Z,47.77
2019-02-21T04:54:07.180Z,47.60
2019-02-21T04:56:33.216Z,59.10
2019-02-21T04:58:59.232Z,61.07
2019-02-21T05:01:25.279Z,56.93
2019-02-21T05:03:51.295Z,52.97
2019-02-21T05:06:17.335Z,62.67
2019-02-21T05:08:43.340Z,52.63
2019-02-21T05:11:09.352Z,58.77
2019-02-21T05:13:35.480Z,59.83
2019-02-21T05:16:01.500Z,48.83
2019-02-21T05:18:27.529Z,55.63
2019-02-21T05:20:53.545Z,53.10
2019-02-21T05:23:19.576Z,51.07
2019-02-21T05:25:45.588Z,50.63
2019-02-21T05:28:19.568Z,54.67
2019-02-21T05:30:46.801Z,56.20
2019-02-21T05:33:14.852Z,54.87
2019-02-21T05:35:42.777Z,55.37
2019-02-21T05:38:16.703Z,56.33
2019-02-21T05:40:47.280Z,55.50
2019-02-21T05:43:32.113Z,50.67
2019-02-21T05:46:22.566Z,52.23
2019-02-21T05:49:02.632Z,51.17
2019-02-21T05:51:36.344Z,51.50
2019-02-21T05:54:04.280Z,51.53
2019-02-21T05:59:40.856Z,50.03
2019-02-21T06:02:14.720Z,47.07
2019-02-21T06:04:45.607Z,53.80
2019-02-21T06:07:13.662Z,58.10
2019-02-21T06:09:44.675Z,49.87
2019-02-21T06:12:33.650Z,54.70
2019-02-21T06:15:03.226Z,50.50
2019-02-21T06:17:39.882Z,54.80
2019-02-21T06:20:10.571Z,59.13
2019-02-21T06:22:41.104Z,56.13
2019-02-21T06:25:30.164Z,56.97
2019-02-21T06:27:58.531Z,51.73
2019-02-21T06:30:46.632Z,55.70
2019-02-21T06:33:12.725Z,59.87
2019-02-21T06:35:38.893Z,61.33
2019-02-21T06:38:04.946Z,56.67
2019-02-21T06:40:30.956Z,57.13
2019-02-21T06:42:57.068Z,57.23
2019-02-21T06:45:23.079Z,64.30
2019-02-21T06:47:49.127Z,59.50
2019-02-21T06:50:15.148Z,59.70
2019-02-21T06:52:41.179Z,50.67
2019-02-21T06:55:07.295Z,56.93
2019-02-21T06:57:33.313Z,56.97
2019-02-21T06:59:59.343Z,58.30
2019-02-21T07:02:27.933Z,56.70
2019-02-21T07:04:53.315Z,62.03
2019-02-21T07:07:19.327Z,59.27
2019-02-21T07:09:45.355Z,53.43
2019-02-21T07:12:11.363Z,62.03
2019-02-21T07:14:37.407Z,58.87
2019-02-21T07:17:03.423Z,58.63
2019-02-21T07:19:29.464Z,60.73
2019-02-21T07:21:55.535Z,56.00
2019-02-21T07:24:21.885Z,62.50
2019-02-21T07:26:47.888Z,49.73
2019-02-21T07:29:13.919Z,49.57
2019-02-21T07:31:39.935Z,57.40
2019-02-21T07:34:07.056Z,63.97
2019-02-21T07:36:33.417Z,55.10
2019-02-21T07:39:13.890Z,55.20
2019-02-21T07:41:27.464Z,64.83
2019-02-21T07:43:53.500Z,63.90
2019-02-21T07:46:19.513Z,60.53
2019-02-21T07:48:45.568Z,59.20
2019-02-21T07:51:13.547Z,56.83
2019-02-21T07:53:39.507Z,57.70
2019-02-21T07:56:05.622Z,55.53
2019-02-21T07:58:31.639Z,74.37
2019-02-21T08:00:57.658Z,100.07
2019-02-21T08:03:31.927Z,97.33
2019-02-21T08:05:51.732Z,89.03
2019-02-21T08:08:17.784Z,88.83
2019-02-21T08:10:43.820Z,98.17
2019-02-21T08:13:09.852Z,109.13
2019-02-21T08:15:35.899Z,101.77
2019-02-21T08:18:01.918Z,97.37
2019-02-21T08:20:34.104Z,97.90
2019-02-21T08:22:55.864Z,107.73
2019-02-21T08:25:21.910Z,109.10
2019-02-21T08:27:47.944Z,99.93
2019-02-21T08:30:14.356Z,108.43
2019-02-21T08:33:00.187Z,102.70
2019-02-21T08:35:26.515Z,101.30
2019-02-21T08:37:52.535Z,99.10
2019-02-21T08:40:18.572Z,106.43
2019-02-21T08:42:44.614Z,102.63
2019-02-21T08:45:10.723Z,109.33
2019-02-21T08:47:36.780Z,117.53
2019-02-21T08:50:04.109Z,109.13
2019-02-21T08:52:30.288Z,109.05
2019-02-21T08:55:00.077Z,102.77
2019-02-21T08:57:24.280Z,103.10
2019-02-21T08:59:50.329Z,106.67
2019-02-21T09:02:16.340Z,101.17
2019-02-21T09:04:42.375Z,96.37
2019-02-21T09:07:08.392Z,96.47
2019-02-21T09:09:34.604Z,89.57
2019-02-21T09:12:00.817Z,80.93
2019-02-21T09:14:26.973Z,81.10
2019-02-21T09:16:52.979Z,85.47
2019-02-21T09:19:19.024Z,70.53
2019-02-21T09:21:45.035Z,71.23
2019-02-21T09:24:13.643Z,68.03
2019-02-21T09:26:39.016Z,57.20
2019-02-21T09:29:05.033Z,63.80
2019-02-21T09:31:31.063Z,55.73
2019-02-21T09:33:57.076Z,57.60
2019-02-21T09:36:23.104Z,46.20
2019-02-21T09:38:49.139Z,51.00
2019-02-21T09:41:15.180Z,48.00
2019-02-21T09:43:41.192Z,54.77
2019-02-21T09:46:07.238Z,58.10
2019-02-21T09:48:33.274Z,57.67
2019-02-21T09:50:59.308Z,56.13
2019-02-21T09:53:25.319Z,56.17
2019-02-21T09:55:51.352Z,52.13
2019-02-21T09:58:17.367Z,57.10
2019-02-21T10:00:43.413Z,49.67
2019-02-21T10:03:09.535Z,62.17
2019-02-21T10:05:35.575Z,58.37
2019-02-21T10:08:01.582Z,51.80
2019-02-21T10:10:27.611Z,57.67
2019-02-21T10:12:53.629Z,55.57
2019-02-21T10:15:19.660Z,51.73
2019-02-21T10:17:45.671Z,50.83
2019-02-21T10:20:19.745Z,56.00
2019-02-21T10:22:45.762Z,62.77
2019-02-21T10:25:27.266Z,63.87
2019-02-21T10:27:53.279Z,57.97
2019-02-21T10:30:21.216Z,54.20
2019-02-21T10:32:47.223Z,56.23
2019-02-21T10:35:13.242Z,60.37
2019-02-21T10:37:39.300Z,61.23
2019-02-21T10:40:10.936Z,53.63
2019-02-21T10:42:37.344Z,48.90
2019-02-21T10:45:18.242Z,45.90
2019-02-21T10:47:44.263Z,48.27
2019-02-21T10:50:14.110Z,45.77
2019-02-21T10:52:41.642Z,43.43
2019-02-21T10:55:08.044Z,41.93
2019-02-21T10:57:34.067Z,40.60
2019-02-21T11:00:00.313Z,39.90
2019-02-21T11:02:26.416Z,37.37
2019-02-21T11:04:54.996Z,37.80
2019-02-21T11:07:20.415Z,43.30
2019-02-21T11:09:46.423Z,43.73
2019-02-21T11:12:12.589Z,72.63
2019-02-21T11:14:47.227Z,47.73
2019-02-21T11:17:06.559Z,51.73
2019-02-21T11:19:32.559Z,48.97
2019-02-21T11:21:58.641Z,44.53
2019-02-21T11:24:24.651Z,45.27
2019-02-21T11:26:50.807Z,38.90
2019-02-21T11:29:16.820Z,42.60
2019-02-21T11:31:42.876Z,48.00
2019-02-21T11:34:08.900Z,40.67
2019-02-21T11:36:34.930Z,46.17
2019-02-21T11:39:00.976Z,40.67
2019-02-21T11:41:27.020Z,42.90
2019-02-21T11:43:53.028Z,42.10
2019-02-21T11:46:21.873Z,46.70
2019-02-21T11:48:47.903Z,57.83
2019-02-21T11:51:13.917Z,47.60
2019-02-21T11:53:40.050Z,58.43
2019-02-21T11:56:06.160Z,44.73
2019-02-21T11:58:32.212Z,42.70
2019-02-21T12:00:58.243Z,40.03
2019-02-21T12:03:24.273Z,40.60
2019-02-21T12:05:50.291Z,42.83
2019-02-21T12:08:36.205Z,37.00
2019-02-21T12:11:02.215Z,36.63
2019-02-21T12:13:28.252Z,37.33
2019-02-21T12:15:54.265Z,40.20
2019-02-21T12:18:20.296Z,35.47
2019-02-21T12:20:46.319Z,40.00
2019-02-21T12:23:12.356Z,28.27
2019-02-21T12:25:38.419Z,27.00
2019-02-21T12:28:04.455Z,31.43
2019-02-21T12:30:33.135Z,27.83
2019-02-21T12:32:58.464Z,35.70
2019-02-21T12:35:29.604Z,27.40
2019-02-21T12:37:52.500Z,25.87
2019-02-21T12:40:21.119Z,27.90
2019-02-21T12:42:47.155Z,35.20
2019-02-21T12:45:15.380Z,32.17
2019-02-21T12:47:49.672Z,25.67
2019-02-21T12:50:10.645Z,32.20
2019-02-21T12:52:36.717Z,28.70
2019-02-21T12:55:05.640Z,27.20
2019-02-21T12:57:31.671Z,26.77
2019-02-21T12:59:57.788Z,27.63
2019-02-21T13:02:23.821Z,30.77
2019-02-21T13:04:49.835Z,28.87
2019-02-21T13:07:15.867Z,30.53
2019-02-21T13:09:41.896Z,33.23
2019-02-21T13:12:07.991Z,35.53
2019-02-21T13:14:34.008Z,32.13
2019-02-21T13:17:00.035Z,35.00
2019-02-21T13:19:26.048Z,30.13
2019-02-21T13:21:52.173Z,25.83
2019-02-21T13:24:18.209Z,33.67
2019-02-21T13:26:44.831Z,26.77
2019-02-21T13:29:13.468Z,39.77
2019-02-21T13:31:39.483Z,36.80
2019-02-21T13:34:05.516Z,27.27
2019-02-21T13:36:33.945Z,28.00
2019-02-21T13:38:59.474Z,25.73
2019-02-21T13:41:25.495Z,27.73
2019-02-21T13:43:51.527Z,24.33
2019-02-21T13:46:17.552Z,24.93
2019-02-21T13:48:43.662Z,25.47
2019-02-21T13:51:09.672Z,20.50
2019-02-21T13:53:35.719Z,20.33
2019-02-21T13:56:01.733Z,22.77
2019-02-21T13:58:27.767Z,24.13
2019-02-21T14:00:53.771Z,17.33
2019-02-21T14:03:19.814Z,18.30
2019-02-21T14:05:45.816Z,17.67
2019-02-21T14:08:11.863Z,21.77
2019-02-21T14:10:37.867Z,18.60
2019-02-21T14:13:03.931Z,19.67
2019-02-21T14:15:29.947Z,14.83
2019-02-21T14:17:55.984Z,19.53
2019-02-21T14:20:21.995Z,19.13
2019-02-21T14:22:48.049Z,14.57
2019-02-21T14:25:14.057Z,20.60
2019-02-21T14:27:40.195Z,22.20
2019-02-21T14:30:17.723Z,24.30
2019-02-21T14:32:43.753Z,23.23
2019-02-21T14:35:13.035Z,26.13
2019-02-21T14:37:39.053Z,26.63
2019-02-21T14:40:12.822Z,23.87
2019-02-21T14:42:38.850Z,22.57
2019-02-21T14:45:08.388Z,20.10
2019-02-21T14:47:34.402Z,27.20
2019-02-21T14:50:04.508Z,24.73
2019-02-21T14:52:29.801Z,22.47
2019-02-21T14:54:55.848Z,21.40
2019-02-21T14:57:21.860Z,20.37
2019-02-21T14:59:47.897Z,18.23
2019-02-21T15:02:13.973Z,16.47
2019-02-21T15:04:40.005Z,21.33
2019-02-21T15:07:06.647Z,18.00
2019-02-21T15:09:32.866Z,23.93
2019-02-21T15:11:58.885Z,20.87
2019-02-21T15:14:24.929Z,21.50
2019-02-21T15:16:50.946Z,18.77
2019-02-21T15:19:17.055Z,20.37
2019-02-21T15:21:43.072Z,18.83
2019-02-21T15:24:09.104Z,18.13
2019-02-21T15:26:35.179Z,21.80
2019-02-21T15:29:01.280Z,18.87
2019-02-21T15:31:27.298Z,20.77
2019-02-21T15:33:53.331Z,14.33
2019-02-21T15:36:19.344Z,24.53
2019-02-21T15:38:45.480Z,22.47
2019-02-21T15:41:11.747Z,22.90
2019-02-21T15:43:37.779Z,19.77
2019-02-21T15:46:03.933Z,19.30
2019-02-21T15:48:29.972Z,15.40
2019-02-21T15:50:56.080Z,21.57
2019-02-21T15:53:24.055Z,19.67
2019-02-21T15:55:50.109Z,20.73
2019-02-21T15:58:16.115Z,18.40
2019-02-21T16:00:42.152Z,17.47
2019-02-21T16:03:08.159Z,18.27
2019-02-21T16:05:34.193Z,21.00
2019-02-21T16:08:00.238Z,22.10
2019-02-21T16:10:26.692Z,16.07
2019-02-21T16:12:53.175Z,18.50
2019-02-21T16:15:19.555Z,23.27
2019-02-21T16:17:45.567Z,19.30
2019-02-21T16:20:13.875Z,20.60
2019-02-21T16:22:40.586Z,16.80
2019-02-21T16:25:20.924Z,25.37
2019-02-21T16:27:46.939Z,18.23
2019-02-21T16:30:13.184Z,20.47
2019-02-21T16:32:39.201Z,20.30
2019-02-21T16:35:27.173Z,30.37
2019-02-21T16:37:53.035Z,27.00
2019-02-21T16:40:19.171Z,24.17
2019-02-21T16:42:45.192Z,18.23
2019-02-21T16:45:13.450Z,17.73
2019-02-21T16:47:39.477Z,27.07
2019-02-21T16:50:08.232Z,25.13
2019-02-21T16:52:36.680Z,26.60
2019-02-21T16:55:03.100Z,32.23
2019-02-21T16:57:29.120Z,19.93
2019-02-21T16:59:55.155Z,22.27
2019-02-21T17:02:22.273Z,22.67
2019-02-21T17:04:48.319Z,20.67
2019-02-21T17:07:20.022Z,22.10
2019-02-21T17:09:42.360Z,23.90
2019-02-21T17:12:08.382Z,21.17
2019-02-21T17:14:34.444Z,19.10
2019-02-21T17:17:00.463Z,21.70
2019-02-21T17:19:26.496Z,33.57
2019-02-21T17:21:52.515Z,32.77
2019-02-21T17:24:18.535Z,24.40
2019-02-21T17:26:44.656Z,21.53
2019-02-21T17:29:10.668Z,21.57
2019-02-21T17:31:37.336Z,25.63
2019-02-21T17:34:03.510Z,23.73
2019-02-21T17:36:29.548Z,23.90
2019-02-21T17:38:55.571Z,16.90
2019-02-21T17:41:21.726Z,20.27
2019-02-21T17:43:48.118Z,24.33
2019-02-21T17:46:14.363Z,24.97
2019-02-21T17:49:00.265Z,42.70
2019-02-21T17:51:26.299Z,25.50
2019-02-21T17:53:52.960Z,31.87
2019-02-21T17:56:19.396Z,26.67
2019-02-21T17:58:45.547Z,34.63
2019-02-21T18:01:11.744Z,34.50
2019-02-21T18:03:37.761Z,31.07
2019-02-21T18:06:03.791Z,31.77
2019-02-21T18:08:29.832Z,32.67
2019-02-21T18:10:55.865Z,24.47
2019-02-21T18:13:21.875Z,34.33
2019-02-21T18:15:48.867Z,31.63
2019-02-21T18:18:14.889Z,36.67
2019-02-21T18:20:40.916Z,21.50
2019-02-21T18:23:06.991Z,39.93
2019-02-21T18:25:42.272Z,29.83
2019-02-21T18:28:08.287Z,27.90
2019-02-21T18:30:34.325Z,31.10
2019-02-21T18:33:00.338Z,30.93
2019-02-21T18:35:26.368Z,34.77
2019-02-21T18:37:52.379Z,40.77
2019-02-21T18:40:21.192Z,27.00
2019-02-21T18:42:47.454Z,26.37
2019-02-21T18:45:13.587Z,25.97
2019-02-21T18:47:39.608Z,25.53
2019-02-21T18:50:08.855Z,25.03
2019-02-21T18:52:35.852Z,32.03
2019-02-21T18:55:04.659Z,23.07
2019-02-21T18:57:30.652Z,29.03
2019-02-21T18:59:56.691Z,23.03
2019-02-21T19:02:22.785Z,19.87
2019-02-21T19:04:48.795Z,24.43
2019-02-21T19:07:14.829Z,29.80
2019-02-21T19:09:40.844Z,37.73
2019-02-21T19:12:06.891Z,35.50
2019-02-21T19:14:32.899Z,27.37
2019-02-21T19:16:58.935Z,32.67
2019-02-21T19:19:24.951Z,38.60
2019-02-21T19:21:50.979Z,20.50
2019-02-21T19:24:17.008Z,18.27
2019-02-21T19:26:43.115Z,24.43
2019-02-21T19:29:09.155Z,22.47
2019-02-21T19:31:35.187Z,20.57
2019-02-21T19:34:01.263Z,17.37
2019-02-21T19:36:27.495Z,22.43
2019-02-21T19:38:53.525Z,90.53
2019-02-21T19:41:19.921Z,37.33
2019-02-21T19:43:46.095Z,38.37
2019-02-21T19:46:12.151Z,30.47
2019-02-21T19:48:38.256Z,38.40
2019-02-21T19:51:04.491Z,31.97
2019-02-21T19:53:30.521Z,30.47
2019-02-21T19:55:56.556Z,33.13
2019-02-21T19:58:24.815Z,39.07
2019-02-21T20:00:50.504Z,34.07
2019-02-21T20:03:16.523Z,28.13
2019-02-21T20:05:42.859Z,27.53
2019-02-21T20:08:09.179Z,27.63
2019-02-21T20:10:35.408Z,30.00
2019-02-21T20:13:03.327Z,34.37
2019-02-21T20:15:29.347Z,38.00
2019-02-21T20:17:55.408Z,32.17
2019-02-21T20:20:24.236Z,37.40
2019-02-21T20:22:50.275Z,34.17
2019-02-21T20:25:16.283Z,34.23
2019-02-21T20:27:42.324Z,36.80
2019-02-21T20:30:11.737Z,26.50
2019-02-21T20:32:37.769Z,27.23
2019-02-21T20:35:04.284Z,31.97
2019-02-21T20:37:30.316Z,33.27
2019-02-21T20:39:56.341Z,38.83
2019-02-21T20:42:22.396Z,30.13
2019-02-21T20:44:48.411Z,32.78
2019-02-21T20:47:14.556Z,27.50
2019-02-21T20:49:40.571Z,28.70
2019-02-21T20:52:06.620Z,32.23
2019-02-21T20:54:32.636Z,37.60
2019-02-21T20:56:58.675Z,33.80
2019-02-21T20:59:24.723Z,39.10
2019-02-21T21:01:50.750Z,37.00
2019-02-21T21:04:16.768Z,29.93
2019-02-21T21:06:43.279Z,30.20
2019-02-21T21:09:09.701Z,30.83
2019-02-21T21:11:35.732Z,45.13
2019-02-21T21:14:04.383Z,37.47
2019-02-21T21:16:30.415Z,37.37
2019-02-21T21:18:56.428Z,38.95
2019-02-21T21:21:22.465Z,37.33
2019-02-21T21:23:48.479Z,36.97
2019-02-21T21:26:14.495Z,41.63
2019-02-21T21:28:40.527Z,43.70
2019-02-21T21:31:06.835Z,43.27
2019-02-21T21:33:32.884Z,48.67
2019-02-21T21:35:58.897Z,48.20
2019-02-21T21:38:24.927Z,37.17
2019-02-21T21:40:50.948Z,34.00
2019-02-21T21:43:16.991Z,46.43
2019-02-21T21:45:42.999Z,39.97
2019-02-21T21:48:09.032Z,49.60
2019-02-21T21:50:35.172Z,38.53
2019-02-21T21:53:01.752Z,39.00
2019-02-21T21:55:27.756Z,43.67
2019-02-21T21:57:53.788Z,37.20
2019-02-21T22:00:22.370Z,35.13
2019-02-21T22:02:48.587Z,36.53
2019-02-21T22:05:14.927Z,32.57
2019-02-21T22:07:40.939Z,36.07
2019-02-21T22:10:16.912Z,39.40
2019-02-21T22:12:42.930Z,32.23
2019-02-21T22:15:11.481Z,31.90
2019-02-21T22:17:37.589Z,34.73
2019-02-21T22:20:04.706Z,42.93
2019-02-21T22:22:30.751Z,28.50
2019-02-21T22:24:56.763Z,30.77
2019-02-21T22:27:24.734Z,31.43
2019-02-21T22:29:50.712Z,32.83
2019-02-21T22:32:16.745Z,31.83
2019-02-21T22:34:42.770Z,33.10
2019-02-21T22:37:08.791Z,25.67
2019-02-21T22:39:34.803Z,34.43
2019-02-21T22:42:01.746Z,28.47
2019-02-21T22:44:27.751Z,30.07
2019-02-21T22:46:53.840Z,34.50
2019-02-21T22:49:19.871Z,32.97
2019-02-21T22:51:45.891Z,37.13
2019-02-21T22:54:11.911Z,38.30
2019-02-21T22:56:37.940Z,34.00
2019-02-21T22:59:04.035Z,34.83
2019-02-21T23:01:30.767Z,42.10
2019-02-21T23:04:00.599Z,48.63
2019-02-21T23:06:48.904Z,48.02
2019-02-21T23:09:27.121Z,36.03
2019-02-21T23:11:47.712Z,42.97
2019-02-21T23:14:13.823Z,38.47
2019-02-21T23:16:39.856Z,32.47
2019-02-21T23:19:05.875Z,40.57
2019-02-21T23:21:31.903Z,29.17
2019-02-21T23:23:57.920Z,33.37
2019-02-21T23:26:23.975Z,32.30
2019-02-21T23:28:49.991Z,32.20
2019-02-21T23:31:16.000Z,36.73
2019-02-21T23:33:52.791Z,31.77
2019-02-21T23:36:18.807Z,32.50
2019-02-21T23:38:44.835Z,31.57
2019-02-21T23:41:10.868Z,38.00
2019-02-21T23:43:36.906Z,34.40
2019-02-21T23:46:02.920Z,36.13
2019-02-21T23:48:28.955Z,35.77
2019-02-21T23:50:55.028Z,28.93
2019-02-21T23:53:21.079Z,36.43
2019-02-21T23:55:47.103Z,33.13
2019-02-21T23:58:13.139Z,34.23
